createdAt,value
2023-02-19T00:00:23.351Z,1016.12
2023-02-19T00:01:26.514Z,1016.13
2023-02-19T00:02:29.724Z,1016.08
2023-02-19T00:04:04.732Z,1016.16
2023-02-19T00:05:08.025Z,1016.10
2023-02-19T00:06:11.302Z,1016.11
2023-02-19T00:07:46.339Z,1016.13
2023-02-19T00:08:49.491Z,1016.16
2023-02-19T00:09:52.539Z,1016.15
2023-02-19T00:11:27.401Z,1016.15
2023-02-19T00:12:30.652Z,1016.21
2023-02-19T00:13:33.866Z,1016.15
2023-02-19T00:15:09.090Z,1016.21
2023-02-19T00:16:12.339Z,1016.19
2023-02-19T00:17:15.225Z,1016.21
2023-02-19T00:18:49.879Z,1016.17
2023-02-19T00:19:52.994Z,1016.12
2023-02-19T00:20:56.177Z,1016.13
2023-02-19T00:22:31.486Z,1016.16
2023-02-19T00:23:34.477Z,1016.16
2023-02-19T00:24:37.551Z,1016.15
2023-02-19T00:26:29.697Z,1016.21
2023-02-19T00:27:33.150Z,1016.16
2023-02-19T00:28:36.447Z,1016.15
2023-02-19T00:30:11.766Z,1016.16
2023-02-19T00:31:15.801Z,1016.17
2023-02-19T00:32:20.055Z,1016.14
2023-02-19T00:33:55.031Z,1016.13
2023-02-19T00:34:57.892Z,1016.22
2023-02-19T00:36:00.887Z,1016.15
2023-02-19T00:37:35.730Z,1016.10
2023-02-19T00:38:38.789Z,1016.11
2023-02-19T00:39:41.886Z,1016.15
2023-02-19T00:41:17.169Z,1016.11
2023-02-19T00:42:20.121Z,1016.12
2023-02-19T00:43:23.173Z,1016.13
2023-02-19T00:44:58.099Z,1016.09
2023-02-19T00:46:01.000Z,1016.07
2023-02-19T00:47:04.313Z,1016.07
2023-02-19T00:48:39.370Z,1016.05
2023-02-19T00:49:42.356Z,1016.05
2023-02-19T00:50:45.191Z,1016.09
2023-02-19T00:52:20.085Z,1016.16
2023-02-19T00:53:23.204Z,1016.15
2023-02-19T00:54:26.212Z,1016.19
2023-02-19T00:56:01.124Z,1016.15
2023-02-19T00:57:04.056Z,1016.18
2023-02-19T00:58:07.185Z,1016.21
2023-02-19T00:59:42.272Z,1016.17
2023-02-19T01:00:24.033Z,1016.17
2023-02-19T01:01:27.514Z,1016.18
2023-02-19T01:02:31.385Z,1016.12
2023-02-19T01:04:06.861Z,1016.24
2023-02-19T01:05:10.357Z,1016.19
2023-02-19T01:06:13.461Z,1016.21
2023-02-19T01:07:48.625Z,1016.22
2023-02-19T01:08:51.716Z,1016.21
2023-02-19T01:09:54.500Z,1016.25
2023-02-19T01:11:29.317Z,1016.21
2023-02-19T01:12:32.263Z,1016.22
2023-02-19T01:13:35.334Z,1016.18
2023-02-19T01:15:10.542Z,1016.14
2023-02-19T01:16:13.737Z,1016.20
2023-02-19T01:17:17.217Z,1016.19
2023-02-19T01:18:52.320Z,1016.21
2023-02-19T01:19:55.343Z,1016.25
2023-02-19T01:20:58.473Z,1016.26
2023-02-19T01:22:33.970Z,1016.25
2023-02-19T01:23:37.075Z,1016.26
2023-02-19T01:24:39.897Z,1016.27
2023-02-19T01:26:14.970Z,1016.26
2023-02-19T01:27:18.015Z,1016.30
2023-02-19T01:28:21.096Z,1016.33
2023-02-19T01:29:55.912Z,1016.32
2023-02-19T01:30:59.100Z,1016.32
2023-02-19T01:32:03.321Z,1016.32
2023-02-19T01:33:38.930Z,1016.34
2023-02-19T01:34:42.086Z,1016.33
2023-02-19T01:35:45.350Z,1016.34
2023-02-19T01:37:20.455Z,1016.36
2023-02-19T01:38:23.708Z,1016.33
2023-02-19T01:39:27.129Z,1016.39
2023-02-19T01:41:02.429Z,1016.39
2023-02-19T01:42:05.758Z,1016.39
2023-02-19T01:43:08.748Z,1016.36
2023-02-19T01:44:43.931Z,1016.42
2023-02-19T01:45:47.002Z,1016.42
2023-02-19T01:46:50.447Z,1016.42
2023-02-19T01:48:25.407Z,1016.39
2023-02-19T01:49:28.403Z,1016.43
2023-02-19T01:50:31.639Z,1016.41
2023-02-19T01:52:07.363Z,1016.40
2023-02-19T01:53:10.600Z,1016.41
2023-02-19T01:54:13.552Z,1016.46
2023-02-19T01:55:48.758Z,1016.45
2023-02-19T01:56:51.772Z,1016.41
2023-02-19T01:57:54.834Z,1016.43
2023-02-19T01:59:29.866Z,1016.42
2023-02-19T02:00:23.396Z,1016.45
2023-02-19T02:01:26.966Z,1016.47
2023-02-19T02:02:30.286Z,1016.46
2023-02-19T02:04:05.081Z,1016.46
2023-02-19T02:05:08.129Z,1016.44
2023-02-19T02:06:11.071Z,1016.47
2023-02-19T02:07:46.273Z,1016.48
2023-02-19T02:08:49.261Z,1016.42
2023-02-19T02:09:52.309Z,1016.42
2023-02-19T02:11:27.394Z,1016.44
2023-02-19T02:12:30.509Z,1016.45
2023-02-19T02:13:33.513Z,1016.40
2023-02-19T02:15:08.575Z,1016.39
2023-02-19T02:16:11.572Z,1016.43
2023-02-19T02:17:14.880Z,1016.46
2023-02-19T02:18:49.847Z,1016.47
2023-02-19T02:19:52.942Z,1016.46
2023-02-19T02:20:55.863Z,1016.49
2023-02-19T02:22:31.394Z,1016.51
2023-02-19T02:23:34.998Z,1016.44
2023-02-19T02:24:38.103Z,1016.51
2023-02-19T02:26:13.273Z,1016.46
2023-02-19T02:27:16.110Z,1016.45
2023-02-19T02:28:19.393Z,1016.43
2023-02-19T02:29:54.566Z,1016.42
2023-02-19T02:30:58.076Z,1016.47
2023-02-19T02:32:02.826Z,1016.48
2023-02-19T02:33:38.255Z,1016.42
2023-02-19T02:34:41.459Z,1016.40
2023-02-19T02:35:44.588Z,1016.40
2023-02-19T02:37:19.435Z,1016.51
2023-02-19T02:38:22.452Z,1016.49
2023-02-19T02:39:25.338Z,1016.51
2023-02-19T02:41:00.362Z,1016.50
2023-02-19T02:42:04.062Z,1016.55
2023-02-19T02:43:07.023Z,1016.51
2023-02-19T02:44:42.250Z,1016.52
2023-02-19T02:45:45.802Z,1016.52
2023-02-19T02:46:49.276Z,1016.60
2023-02-19T02:48:24.039Z,1016.57
2023-02-19T02:49:27.126Z,1016.60
2023-02-19T02:50:30.218Z,1016.59
2023-02-19T02:52:05.335Z,1016.66
2023-02-19T02:53:08.492Z,1016.60
2023-02-19T02:54:11.416Z,1016.64
2023-02-19T02:55:49.064Z,1016.65
2023-02-19T02:56:52.123Z,1016.69
2023-02-19T02:57:55.527Z,1016.63
2023-02-19T02:59:30.722Z,1016.68
2023-02-19T03:00:23.065Z,1016.67
2023-02-19T03:01:26.437Z,1016.71
2023-02-19T03:02:29.834Z,1016.74
2023-02-19T03:04:04.815Z,1016.80
2023-02-19T03:05:07.903Z,1016.79
2023-02-19T03:06:10.933Z,1016.74
2023-02-19T03:07:45.781Z,1016.76
2023-02-19T03:08:48.938Z,1016.77
2023-02-19T03:09:55.199Z,1016.79
2023-02-19T03:11:30.024Z,1016.78
2023-02-19T03:12:32.919Z,1016.76
2023-02-19T03:13:35.967Z,1016.80
2023-02-19T03:15:11.049Z,1016.81
2023-02-19T03:16:14.218Z,1016.82
2023-02-19T03:17:17.553Z,1016.87
2023-02-19T03:18:52.752Z,1016.94
2023-02-19T03:19:55.969Z,1016.93
2023-02-19T03:20:58.977Z,1016.96
2023-02-19T03:22:34.317Z,1016.90
2023-02-19T03:23:37.446Z,1016.94
2023-02-19T03:24:40.729Z,1016.95
2023-02-19T03:26:15.635Z,1016.95
2023-02-19T03:27:18.619Z,1016.92
2023-02-19T03:28:21.644Z,1016.93
2023-02-19T03:29:56.484Z,1016.94
2023-02-19T03:31:00.093Z,1016.99
2023-02-19T03:32:04.709Z,1016.96
2023-02-19T03:33:40.069Z,1016.99
2023-02-19T03:34:43.434Z,1016.98
2023-02-19T03:35:46.380Z,1016.99
2023-02-19T03:37:21.528Z,1016.99
2023-02-19T03:38:24.640Z,1016.98
2023-02-19T03:39:27.741Z,1016.98
2023-02-19T03:41:02.681Z,1017.05
2023-02-19T03:42:06.077Z,1017.02
2023-02-19T03:43:08.954Z,1017.04
2023-02-19T03:44:43.915Z,1017.06
2023-02-19T03:45:47.186Z,1017.09
2023-02-19T03:46:50.460Z,1017.11
2023-02-19T03:48:25.769Z,1017.08
2023-02-19T03:49:28.806Z,1017.11
2023-02-19T03:50:35.154Z,1017.10
2023-02-19T03:52:10.315Z,1017.11
2023-02-19T03:53:13.482Z,1017.10
2023-02-19T03:54:16.606Z,1017.13
2023-02-19T03:55:51.656Z,1017.21
2023-02-19T03:56:54.699Z,1017.17
2023-02-19T03:57:57.962Z,1017.22
2023-02-19T03:59:32.793Z,1017.25
2023-02-19T04:00:23.692Z,1017.25
2023-02-19T04:01:27.026Z,1017.25
2023-02-19T04:02:30.269Z,1017.27
2023-02-19T04:04:05.367Z,1017.29
2023-02-19T04:05:08.859Z,1017.30
2023-02-19T04:06:12.078Z,1017.31
2023-02-19T04:07:47.327Z,1017.31
2023-02-19T04:08:50.277Z,1017.36
2023-02-19T04:09:53.290Z,1017.31
2023-02-19T04:11:28.521Z,1017.35
2023-02-19T04:12:31.505Z,1017.36
2023-02-19T04:13:34.542Z,1017.37
2023-02-19T04:15:09.387Z,1017.41
2023-02-19T04:16:12.386Z,1017.45
2023-02-19T04:17:15.666Z,1017.47
2023-02-19T04:18:50.625Z,1017.41
2023-02-19T04:19:53.474Z,1017.43
2023-02-19T04:20:56.671Z,1017.44
2023-02-19T04:22:31.933Z,1017.44
2023-02-19T04:23:34.978Z,1017.45
2023-02-19T04:24:38.034Z,1017.52
2023-02-19T04:26:13.122Z,1017.50
2023-02-19T04:27:16.202Z,1017.52
2023-02-19T04:28:19.368Z,1017.58
2023-02-19T04:29:54.568Z,1017.56
2023-02-19T04:30:58.050Z,1017.61
2023-02-19T04:32:02.155Z,1017.61
2023-02-19T04:33:37.281Z,1017.59
2023-02-19T04:34:40.351Z,1017.62
2023-02-19T04:35:46.010Z,1017.63
2023-02-19T04:37:21.285Z,1017.61
2023-02-19T04:38:24.735Z,1017.66
2023-02-19T04:39:27.964Z,1017.66
2023-02-19T04:41:02.999Z,1017.66
2023-02-19T04:42:06.821Z,1017.63
2023-02-19T04:43:09.737Z,1017.66
2023-02-19T04:44:44.968Z,1017.74
2023-02-19T04:45:48.095Z,1017.72
2023-02-19T04:46:54.299Z,1017.77
2023-02-19T04:48:29.291Z,1017.82
2023-02-19T04:49:32.267Z,1017.80
2023-02-19T04:50:35.359Z,1017.85
2023-02-19T04:52:10.817Z,1017.91
2023-02-19T04:53:13.995Z,1017.90
2023-02-19T04:54:16.974Z,1017.92
2023-02-19T04:55:52.073Z,1017.94
2023-02-19T04:56:55.142Z,1017.97
2023-02-19T04:57:58.357Z,1017.95
2023-02-19T04:59:33.405Z,1018.01
2023-02-19T05:00:23.579Z,1018.07
2023-02-19T05:01:27.082Z,1018.08
2023-02-19T05:02:30.381Z,1018.08
2023-02-19T05:04:05.732Z,1018.12
2023-02-19T05:05:53.618Z,1018.13
2023-02-19T05:06:56.940Z,1018.17
2023-02-19T05:08:00.016Z,1018.21
2023-02-19T05:09:35.057Z,1018.19
2023-02-19T05:10:38.133Z,1018.21
2023-02-19T05:11:41.219Z,1018.22
2023-02-19T05:13:16.298Z,1018.25
2023-02-19T05:14:19.782Z,1018.23
2023-02-19T05:15:22.780Z,1018.33
2023-02-19T05:16:58.114Z,1018.37
2023-02-19T05:18:01.235Z,1018.33
2023-02-19T05:19:04.246Z,1018.35
2023-02-19T05:20:39.363Z,1018.34
2023-02-19T05:21:42.348Z,1018.37
2023-02-19T05:22:45.388Z,1018.38
2023-02-19T05:24:20.024Z,1018.44
2023-02-19T05:25:23.374Z,1018.43
2023-02-19T05:26:26.262Z,1018.43
2023-02-19T05:28:03.721Z,1018.42
2023-02-19T05:29:06.724Z,1018.41
2023-02-19T05:30:09.697Z,1018.38
2023-02-19T05:31:45.724Z,1018.42
2023-02-19T05:32:49.297Z,1018.41
2023-02-19T05:33:52.630Z,1018.41
2023-02-19T05:35:27.662Z,1018.43
2023-02-19T05:36:30.860Z,1018.42
2023-02-19T05:37:33.741Z,1018.42
2023-02-19T05:39:08.921Z,1018.39
2023-02-19T05:40:12.019Z,1018.39
2023-02-19T05:41:15.679Z,1018.42
2023-02-19T05:42:50.736Z,1018.43
2023-02-19T05:43:53.629Z,1018.41
2023-02-19T05:44:56.766Z,1018.43
2023-02-19T05:46:32.048Z,1018.47
2023-02-19T05:47:35.259Z,1018.44
2023-02-19T05:48:38.327Z,1018.41
2023-02-19T05:50:13.098Z,1018.44
2023-02-19T05:51:16.446Z,1018.49
2023-02-19T05:52:19.515Z,1018.48
2023-02-19T05:53:54.412Z,1018.51
2023-02-19T05:54:57.646Z,1018.57
2023-02-19T05:56:00.730Z,1018.60
2023-02-19T05:57:35.867Z,1018.59
2023-02-19T05:58:41.059Z,1018.59
2023-02-19T05:59:44.072Z,1018.63
2023-02-19T06:00:23.310Z,1018.63
2023-02-19T06:01:26.383Z,1018.65
2023-02-19T06:02:29.686Z,1018.70
2023-02-19T06:04:08.494Z,1018.68
2023-02-19T06:05:11.695Z,1018.70
2023-02-19T06:06:14.812Z,1018.67
2023-02-19T06:07:49.786Z,1018.68
2023-02-19T06:08:52.921Z,1018.69
2023-02-19T06:09:55.741Z,1018.67
2023-02-19T06:11:30.577Z,1018.75
2023-02-19T06:12:33.828Z,1018.73
2023-02-19T06:13:36.797Z,1018.75
2023-02-19T06:15:11.765Z,1018.77
2023-02-19T06:16:14.827Z,1018.77
2023-02-19T06:17:18.212Z,1018.80
2023-02-19T06:18:53.018Z,1018.84
2023-02-19T06:19:56.112Z,1018.87
2023-02-19T06:20:59.133Z,1018.86
2023-02-19T06:22:34.696Z,1018.83
2023-02-19T06:23:37.708Z,1018.85
2023-02-19T06:24:40.562Z,1018.92
2023-02-19T06:26:15.693Z,1019.03
2023-02-19T06:27:18.716Z,1019.06
2023-02-19T06:28:21.758Z,1019.14
2023-02-19T06:29:56.525Z,1019.21
2023-02-19T06:31:02.672Z,1019.22
2023-02-19T06:32:07.361Z,1019.23
2023-02-19T06:33:43.003Z,1019.29
2023-02-19T06:34:46.150Z,1019.30
2023-02-19T06:35:49.313Z,1019.27
2023-02-19T06:37:24.344Z,1019.33
2023-02-19T06:38:27.542Z,1019.35
2023-02-19T06:39:30.431Z,1019.38
2023-02-19T06:41:05.346Z,1019.31
2023-02-19T06:42:08.596Z,1019.32
2023-02-19T06:43:11.674Z,1019.28
2023-02-19T06:44:46.537Z,1019.37
2023-02-19T06:45:49.530Z,1019.39
2023-02-19T06:46:52.877Z,1019.38
2023-02-19T06:48:28.136Z,1019.35
2023-02-19T06:49:31.437Z,1019.47
2023-02-19T06:50:34.527Z,1019.47
2023-02-19T06:52:09.859Z,1019.47
2023-02-19T06:53:12.716Z,1019.47
2023-02-19T06:54:15.705Z,1019.48
2023-02-19T06:55:51.079Z,1019.53
2023-02-19T06:56:58.116Z,1019.53
2023-02-19T06:58:00.944Z,1019.58
2023-02-19T06:59:36.272Z,1019.59
2023-02-19T07:00:23.944Z,1019.63
2023-02-19T07:01:27.162Z,1019.64
2023-02-19T07:02:30.089Z,1019.68
2023-02-19T07:04:05.251Z,1019.70
2023-02-19T07:05:08.505Z,1019.68
2023-02-19T07:06:11.532Z,1019.72
2023-02-19T07:07:46.741Z,1019.70
2023-02-19T07:08:49.647Z,1019.71
2023-02-19T07:09:52.694Z,1019.71
2023-02-19T07:11:27.722Z,1019.75
2023-02-19T07:12:30.746Z,1019.79
2023-02-19T07:13:33.997Z,1019.84
2023-02-19T07:15:08.740Z,1019.93
2023-02-19T07:16:12.022Z,1019.93
2023-02-19T07:17:15.627Z,1019.98
2023-02-19T07:18:50.539Z,1019.92
2023-02-19T07:19:53.660Z,1019.95
2023-02-19T07:20:56.742Z,1019.95
2023-02-19T07:22:32.274Z,1020.00
2023-02-19T07:23:35.260Z,1019.98
2023-02-19T07:24:38.074Z,1019.99
2023-02-19T07:26:13.103Z,1020.02
2023-02-19T07:27:16.127Z,1019.98
2023-02-19T07:28:19.270Z,1020.03
2023-02-19T07:29:54.295Z,1020.10
2023-02-19T07:30:57.688Z,1020.12
2023-02-19T07:32:02.197Z,1020.19
2023-02-19T07:33:37.298Z,1020.18
2023-02-19T07:34:40.427Z,1020.15
2023-02-19T07:35:43.358Z,1020.11
2023-02-19T07:37:18.346Z,1020.18
2023-02-19T07:38:21.511Z,1020.18
2023-02-19T07:39:24.669Z,1020.24
2023-02-19T07:40:59.668Z,1020.29
2023-02-19T07:42:02.999Z,1020.28
2023-02-19T07:43:05.992Z,1020.29
2023-02-19T07:44:40.795Z,1020.37
2023-02-19T07:45:46.811Z,1020.33
2023-02-19T07:46:50.076Z,1020.38
2023-02-19T07:48:25.187Z,1020.40
2023-02-19T07:49:28.367Z,1020.37
2023-02-19T07:50:31.482Z,1020.38
2023-02-19T07:52:07.087Z,1020.33
2023-02-19T07:53:09.926Z,1020.34
2023-02-19T07:54:13.054Z,1020.34
2023-02-19T07:55:47.972Z,1020.35
2023-02-19T07:56:51.172Z,1020.38
2023-02-19T07:57:54.210Z,1020.39
2023-02-19T07:59:30.062Z,1020.35
2023-02-19T08:00:23.332Z,1020.34
2023-02-19T08:01:27.023Z,1020.36
2023-02-19T08:02:30.005Z,1020.32
2023-02-19T08:04:05.039Z,1020.42
2023-02-19T08:05:08.272Z,1020.41
2023-02-19T08:06:11.703Z,1020.45
2023-02-19T08:07:46.797Z,1020.44
2023-02-19T08:08:49.737Z,1020.52
2023-02-19T08:09:54.426Z,1020.56
2023-02-19T08:11:29.635Z,1020.60
2023-02-19T08:12:32.962Z,1020.60
2023-02-19T08:13:36.189Z,1020.64
2023-02-19T08:15:11.174Z,1020.69
2023-02-19T08:16:48.067Z,1020.74
2023-02-19T08:17:51.525Z,1020.77
2023-02-19T08:19:26.473Z,1020.77
2023-02-19T08:20:29.417Z,1020.87
2023-02-19T08:21:34.207Z,1020.88
2023-02-19T08:23:09.415Z,1020.84
2023-02-19T08:24:12.653Z,1020.87
2023-02-19T08:25:15.623Z,1020.87
2023-02-19T08:26:50.846Z,1020.92
2023-02-19T08:27:53.816Z,1020.90
2023-02-19T08:28:56.732Z,1020.94
2023-02-19T08:30:32.314Z,1020.96
2023-02-19T08:31:36.586Z,1020.98
2023-02-19T08:32:40.234Z,1020.97
2023-02-19T08:34:15.246Z,1021.05
2023-02-19T08:35:18.239Z,1021.09
2023-02-19T08:36:21.236Z,1021.09
2023-02-19T08:37:56.028Z,1021.11
2023-02-19T08:38:59.127Z,1021.12
2023-02-19T08:40:02.326Z,1021.16
2023-02-19T08:41:37.496Z,1021.14
2023-02-19T08:42:40.391Z,1021.20
2023-02-19T08:43:43.440Z,1021.25
2023-02-19T08:45:18.535Z,1021.32
2023-02-19T08:46:21.988Z,1021.29
2023-02-19T08:47:26.451Z,1021.39
2023-02-19T08:49:01.446Z,1021.35
2023-02-19T08:50:04.509Z,1021.42
2023-02-19T08:51:07.570Z,1021.43
2023-02-19T08:52:42.988Z,1021.44
2023-02-19T08:53:46.096Z,1021.41
2023-02-19T08:54:49.419Z,1021.38
2023-02-19T08:56:25.488Z,1021.43
2023-02-19T08:57:28.462Z,1021.43
2023-02-19T08:58:31.666Z,1021.41
2023-02-19T09:00:23.418Z,1021.38
2023-02-19T09:01:27.232Z,1021.37
2023-02-19T09:02:31.050Z,1021.45
2023-02-19T09:04:06.331Z,1021.54
2023-02-19T09:05:09.476Z,1021.57
2023-02-19T09:06:12.872Z,1021.65
2023-02-19T09:07:47.834Z,1021.62
2023-02-19T09:08:50.937Z,1021.62
2023-02-19T09:09:54.062Z,1021.64
2023-02-19T09:11:28.776Z,1021.62
2023-02-19T09:12:34.668Z,1021.59
2023-02-19T09:13:37.474Z,1021.58
2023-02-19T09:15:12.506Z,1021.63
2023-02-19T09:16:15.714Z,1021.67
2023-02-19T09:17:18.741Z,1021.67
2023-02-19T09:18:53.905Z,1021.79
2023-02-19T09:19:56.962Z,1021.81
2023-02-19T09:20:59.926Z,1021.84
2023-02-19T09:22:35.393Z,1021.91
2023-02-19T09:23:38.330Z,1021.88
2023-02-19T09:24:41.373Z,1021.91
2023-02-19T09:26:16.388Z,1021.94
2023-02-19T09:27:19.604Z,1021.97
2023-02-19T09:28:22.895Z,1022.00
2023-02-19T09:29:57.671Z,1022.06
2023-02-19T09:31:01.258Z,1022.10
2023-02-19T09:32:05.520Z,1022.17
2023-02-19T09:33:43.200Z,1022.14
2023-02-19T09:34:46.282Z,1022.14
2023-02-19T09:35:49.258Z,1022.19
2023-02-19T09:37:24.281Z,1022.26
2023-02-19T09:38:27.183Z,1022.31
2023-02-19T09:39:30.466Z,1022.48
2023-02-19T09:41:05.423Z,1022.52
2023-02-19T09:42:09.193Z,1022.61
2023-02-19T09:43:13.377Z,1022.64
2023-02-19T09:44:48.451Z,1022.59
2023-02-19T09:45:51.799Z,1022.57
2023-02-19T09:46:54.761Z,1022.59
2023-02-19T09:48:30.068Z,1022.62
2023-02-19T09:49:32.846Z,1022.65
2023-02-19T09:50:35.947Z,1022.68
2023-02-19T09:52:10.799Z,1022.77
2023-02-19T09:53:13.842Z,1022.77
2023-02-19T09:54:16.712Z,1022.72
2023-02-19T09:55:54.703Z,1022.74
2023-02-19T09:56:57.962Z,1022.77
2023-02-19T09:58:01.773Z,1022.80
2023-02-19T09:59:36.644Z,1022.81
2023-02-19T10:00:23.469Z,1022.85
2023-02-19T10:01:26.493Z,1022.85
2023-02-19T10:02:29.664Z,1022.87
2023-02-19T10:04:04.346Z,1022.91
2023-02-19T10:05:07.683Z,1022.97
2023-02-19T10:06:11.519Z,1023.03
2023-02-19T10:07:46.306Z,1022.97
2023-02-19T10:08:49.359Z,1022.95
2023-02-19T10:09:52.194Z,1022.97
2023-02-19T10:11:27.222Z,1022.95
2023-02-19T10:12:30.050Z,1022.90
2023-02-19T10:13:33.217Z,1022.90
2023-02-19T10:15:08.221Z,1022.94
2023-02-19T10:16:11.456Z,1023.02
2023-02-19T10:17:14.476Z,1023.05
2023-02-19T10:18:49.670Z,1023.16
2023-02-19T10:19:52.724Z,1023.16
2023-02-19T10:20:55.879Z,1023.24
2023-02-19T10:22:30.923Z,1023.26
2023-02-19T10:23:34.119Z,1023.24
2023-02-19T10:24:38.580Z,1023.28
2023-02-19T10:26:13.479Z,1023.27
2023-02-19T10:27:16.480Z,1023.30
2023-02-19T10:28:19.279Z,1023.32
2023-02-19T10:29:54.262Z,1023.37
2023-02-19T10:30:57.604Z,1023.43
2023-02-19T10:32:02.235Z,1023.47
2023-02-19T10:33:37.385Z,1023.53
2023-02-19T10:34:40.419Z,1023.48
2023-02-19T10:35:43.327Z,1023.45
2023-02-19T10:37:18.725Z,1023.52
2023-02-19T10:38:21.752Z,1023.55
2023-02-19T10:39:24.635Z,1023.59
2023-02-19T10:40:59.946Z,1023.59
2023-02-19T10:42:03.302Z,1023.61
2023-02-19T10:43:06.377Z,1023.60
2023-02-19T10:44:41.274Z,1023.58
2023-02-19T10:45:44.160Z,1023.55
2023-02-19T10:46:47.382Z,1023.51
2023-02-19T10:48:22.329Z,1023.52
2023-02-19T10:49:25.451Z,1023.59
2023-02-19T10:50:28.249Z,1023.58
2023-02-19T10:52:03.567Z,1023.63
2023-02-19T10:53:06.577Z,1023.64
2023-02-19T10:54:09.484Z,1023.67
2023-02-19T10:55:44.578Z,1023.64
2023-02-19T10:56:47.604Z,1023.64
2023-02-19T10:57:50.805Z,1023.64
2023-02-19T10:59:25.599Z,1023.67
2023-02-19T11:00:23.420Z,1023.67
2023-02-19T11:01:26.536Z,1023.67
2023-02-19T11:02:29.763Z,1023.63
2023-02-19T11:04:04.739Z,1023.58
2023-02-19T11:05:07.983Z,1023.56
2023-02-19T11:06:11.103Z,1023.56
2023-02-19T11:07:46.276Z,1023.58
2023-02-19T11:08:49.337Z,1023.60
2023-02-19T11:09:52.418Z,1023.57
2023-02-19T11:11:27.343Z,1023.63
2023-02-19T11:12:30.675Z,1023.58
2023-02-19T11:13:34.218Z,1023.58
2023-02-19T11:15:09.070Z,1023.55
2023-02-19T11:16:12.306Z,1023.60
2023-02-19T11:17:15.736Z,1023.57
2023-02-19T11:18:50.489Z,1023.60
2023-02-19T11:19:54.692Z,1023.58
2023-02-19T11:20:57.759Z,1023.61
2023-02-19T11:22:33.480Z,1023.61
2023-02-19T11:23:36.585Z,1023.65
2023-02-19T11:24:39.620Z,1023.62
2023-02-19T11:26:17.853Z,1023.65
2023-02-19T11:27:20.857Z,1023.67
2023-02-19T11:28:23.800Z,1023.72
2023-02-19T11:29:58.800Z,1023.68
2023-02-19T11:31:02.054Z,1023.71
2023-02-19T11:32:06.510Z,1023.69
2023-02-19T11:33:42.424Z,1023.73
2023-02-19T11:34:45.374Z,1023.74
2023-02-19T11:35:48.360Z,1023.74
2023-02-19T11:37:26.246Z,1023.79
2023-02-19T11:38:29.247Z,1023.80
2023-02-19T11:39:32.255Z,1023.79
2023-02-19T11:41:07.183Z,1023.78
2023-02-19T11:42:10.554Z,1023.81
2023-02-19T11:43:15.735Z,1023.81
2023-02-19T11:44:50.698Z,1023.83
2023-02-19T11:45:53.778Z,1023.90
2023-02-19T11:46:56.989Z,1023.95
2023-02-19T11:48:31.946Z,1023.94
2023-02-19T11:49:35.033Z,1023.96
2023-02-19T11:50:37.935Z,1023.93
2023-02-19T11:52:12.833Z,1023.89
2023-02-19T11:53:15.708Z,1023.91
2023-02-19T11:54:18.924Z,1023.92
2023-02-19T11:55:53.957Z,1023.92
2023-02-19T11:56:56.909Z,1023.92
2023-02-19T11:57:59.856Z,1023.95
2023-02-19T11:59:34.848Z,1023.92
2023-02-19T12:00:23.977Z,1023.91
2023-02-19T12:01:27.070Z,1023.91
2023-02-19T12:02:30.537Z,1023.93
2023-02-19T12:04:05.678Z,1023.95
2023-02-19T12:05:08.668Z,1023.96
2023-02-19T12:06:12.454Z,1023.98
2023-02-19T12:07:47.533Z,1024.02
2023-02-19T12:08:50.641Z,1024.03
2023-02-19T12:09:53.714Z,1024.05
2023-02-19T12:11:28.568Z,1023.99
2023-02-19T12:12:31.509Z,1023.95
2023-02-19T12:13:35.298Z,1023.93
2023-02-19T12:15:10.313Z,1023.89
2023-02-19T12:16:13.681Z,1023.88
2023-02-19T12:17:16.968Z,1023.85
2023-02-19T12:18:51.719Z,1023.90
2023-02-19T12:19:54.874Z,1023.90
2023-02-19T12:20:58.301Z,1023.85
2023-02-19T12:22:33.780Z,1023.90
2023-02-19T12:23:36.883Z,1023.84
2023-02-19T12:24:39.900Z,1023.83
2023-02-19T12:26:15.391Z,1023.85
2023-02-19T12:27:18.225Z,1023.87
2023-02-19T12:28:21.386Z,1023.90
2023-02-19T12:29:56.232Z,1023.91
2023-02-19T12:30:59.547Z,1023.90
2023-02-19T12:32:03.392Z,1023.90
2023-02-19T12:33:38.669Z,1023.93
2023-02-19T12:34:41.715Z,1023.92
2023-02-19T12:35:44.910Z,1023.93
2023-02-19T12:37:19.890Z,1023.91
2023-02-19T12:38:23.194Z,1023.89
2023-02-19T12:39:26.492Z,1023.89
2023-02-19T12:41:01.261Z,1023.92
2023-02-19T12:42:04.374Z,1023.91
2023-02-19T12:43:07.843Z,1023.90
2023-02-19T12:44:42.831Z,1023.99
2023-02-19T12:45:45.979Z,1024.00
2023-02-19T12:46:49.548Z,1024.03
2023-02-19T12:48:24.433Z,1024.04
2023-02-19T12:49:27.307Z,1024.07
2023-02-19T12:50:33.239Z,1024.13
2023-02-19T12:52:08.336Z,1024.13
2023-02-19T12:53:11.453Z,1024.18
2023-02-19T12:54:14.364Z,1024.17
2023-02-19T12:55:52.334Z,1024.12
2023-02-19T12:56:55.788Z,1024.16
2023-02-19T12:57:59.161Z,1024.11
2023-02-19T12:59:34.405Z,1024.10
2023-02-19T13:00:23.401Z,1024.11
2023-02-19T13:01:27.078Z,1024.08
2023-02-19T13:02:30.673Z,1024.07
2023-02-19T13:04:05.948Z,1024.05
2023-02-19T13:05:08.719Z,1024.09
2023-02-19T13:06:15.446Z,1024.11
2023-02-19T13:07:50.537Z,1024.11
2023-02-19T13:09:17.033Z,1024.17
2023-02-19T13:10:19.967Z,1024.21
2023-02-19T13:11:55.575Z,1024.19
2023-02-19T13:12:58.458Z,1024.26
2023-02-19T13:14:01.519Z,1024.27
2023-02-19T13:15:36.699Z,1024.34
2023-02-19T13:16:39.845Z,1024.37
2023-02-19T13:17:43.097Z,1024.40
2023-02-19T13:19:20.283Z,1024.45
2023-02-19T13:20:23.245Z,1024.42
2023-02-19T13:21:26.319Z,1024.42
2023-02-19T13:23:04.304Z,1024.40
2023-02-19T13:24:07.180Z,1024.40
2023-02-19T13:25:10.231Z,1024.42
2023-02-19T13:26:46.964Z,1024.43
2023-02-19T13:27:53.041Z,1024.48
2023-02-19T13:28:56.123Z,1024.54
2023-02-19T13:30:31.338Z,1024.56
2023-02-19T13:31:35.570Z,1024.55
2023-02-19T13:32:39.054Z,1024.58
2023-02-19T13:34:13.852Z,1024.61
2023-02-19T13:35:17.365Z,1024.64
2023-02-19T13:36:20.415Z,1024.66
2023-02-19T13:37:55.573Z,1024.69
2023-02-19T13:38:58.420Z,1024.67
2023-02-19T13:40:01.398Z,1024.64
2023-02-19T13:41:36.423Z,1024.69
2023-02-19T13:42:39.412Z,1024.66
2023-02-19T13:43:42.650Z,1024.58
2023-02-19T13:45:17.923Z,1024.58
2023-02-19T13:46:21.120Z,1024.57
2023-02-19T13:47:24.249Z,1024.58
2023-02-19T13:48:59.151Z,1024.62
2023-02-19T13:50:01.951Z,1024.58
2023-02-19T13:51:05.885Z,1024.58
2023-02-19T13:52:41.503Z,1024.59
2023-02-19T13:53:44.373Z,1024.61
2023-02-19T13:54:47.386Z,1024.62
2023-02-19T13:56:22.416Z,1024.68
2023-02-19T13:57:25.438Z,1024.66
2023-02-19T13:58:28.427Z,1024.68
2023-02-19T14:00:23.062Z,1024.67
2023-02-19T14:01:26.521Z,1024.71
2023-02-19T14:02:29.648Z,1024.74
2023-02-19T14:04:05.005Z,1024.80
2023-02-19T14:05:08.133Z,1024.77
2023-02-19T14:06:11.076Z,1024.80
2023-02-19T14:07:46.921Z,1024.75
2023-02-19T14:08:49.795Z,1024.76
2023-02-19T14:09:52.774Z,1024.77
2023-02-19T14:11:27.466Z,1024.81
2023-02-19T14:12:30.401Z,1024.74
2023-02-19T14:13:33.517Z,1024.73
2023-02-19T14:15:08.632Z,1024.76
2023-02-19T14:16:11.977Z,1024.79
2023-02-19T14:17:15.049Z,1024.74
2023-02-19T14:18:50.090Z,1024.76
2023-02-19T14:19:53.050Z,1024.76
2023-02-19T14:20:56.269Z,1024.80
2023-02-19T14:22:31.534Z,1024.78
2023-02-19T14:23:34.547Z,1024.80
2023-02-19T14:24:38.802Z,1024.82
2023-02-19T14:26:13.664Z,1024.74
2023-02-19T14:27:16.794Z,1024.76
2023-02-19T14:28:19.816Z,1024.68
2023-02-19T14:29:54.898Z,1024.62
2023-02-19T14:30:58.386Z,1024.59
2023-02-19T14:32:04.621Z,1024.51
2023-02-19T14:33:57.269Z,1024.51
2023-02-19T14:35:00.300Z,1024.47
2023-02-19T14:36:03.554Z,1024.46
2023-02-19T14:37:38.599Z,1024.34
2023-02-19T14:38:41.661Z,1024.34
2023-02-19T14:39:44.854Z,1024.26
2023-02-19T14:41:20.149Z,1024.31
2023-02-19T14:42:23.211Z,1024.27
2023-02-19T14:43:26.217Z,1024.26
2023-02-19T14:45:01.179Z,1024.28
2023-02-19T14:46:04.298Z,1024.22
2023-02-19T14:47:07.336Z,1024.21
2023-02-19T14:48:42.644Z,1024.18
2023-02-19T14:49:45.612Z,1024.19
2023-02-19T14:50:48.812Z,1024.21